createdAt,value
2022-10-05T00:01:12.816Z,13.47
2022-10-05T00:03:38.790Z,13.47
2022-10-05T00:06:04.723Z,13.39
2022-10-05T00:08:30.630Z,13.33
2022-10-05T00:10:56.549Z,13.32
2022-10-05T00:13:22.522Z,13.21
2022-10-05T00:15:48.453Z,13.31
2022-10-05T00:18:14.342Z,13.36
2022-10-05T00:20:40.272Z,13.41
2022-10-05T00:23:06.174Z,13.28
2022-10-05T00:25:32.103Z,13.11
2022-10-05T00:27:58.073Z,13.07
2022-10-05T00:30:24.007Z,13.24
2022-10-05T00:32:49.971Z,13.30
2022-10-05T00:35:15.861Z,13.25
2022-10-05T00:37:41.776Z,13.17
2022-10-05T00:40:07.690Z,13.18
2022-10-05T00:42:33.615Z,13.25
2022-10-05T00:44:59.519Z,13.22
2022-10-05T00:47:25.468Z,13.28
2022-10-05T00:49:51.380Z,13.31
2022-10-05T00:52:17.319Z,13.21
2022-10-05T00:54:43.238Z,13.34
2022-10-05T00:57:09.172Z,13.26
2022-10-05T00:59:35.060Z,13.17
2022-10-05T01:02:01.013Z,13.18
2022-10-05T01:04:26.960Z,13.17
2022-10-05T01:06:52.855Z,13.31
2022-10-05T01:09:18.774Z,13.30
2022-10-05T01:11:44.666Z,13.22
2022-10-05T01:14:10.585Z,13.23
2022-10-05T01:16:36.621Z,13.09
2022-10-05T01:19:02.918Z,13.12
2022-10-05T01:21:29.105Z,13.18
2022-10-05T01:23:55.031Z,13.16
2022-10-05T01:26:20.993Z,13.14
2022-10-05T01:28:47.214Z,13.14
2022-10-05T01:31:13.516Z,13.03
2022-10-05T01:33:39.751Z,12.99
2022-10-05T03:49:11.991Z,12.36
2022-10-05T03:51:37.951Z,12.25
2022-10-05T03:54:03.848Z,12.31
2022-10-05T03:56:29.821Z,12.31
2022-10-05T03:58:55.744Z,12.24
2022-10-05T04:01:21.661Z,12.23
2022-10-05T04:03:47.659Z,12.14
2022-10-05T04:06:13.579Z,12.15
2022-10-05T04:08:41.252Z,12.19
2022-10-05T04:11:09.011Z,12.34
2022-10-05T04:13:34.945Z,12.27
2022-10-05T04:16:00.945Z,11.94
2022-10-05T04:18:26.899Z,11.63
2022-10-05T04:20:52.823Z,11.57
2022-10-05T04:23:18.753Z,11.89
2022-10-05T04:25:44.663Z,11.85
2022-10-05T04:28:10.606Z,11.93
2022-10-05T04:30:36.533Z,12.06
2022-10-05T04:33:02.476Z,11.93
2022-10-05T04:35:28.394Z,11.96
2022-10-05T04:37:54.329Z,11.98
2022-10-05T04:40:20.277Z,11.99
2022-10-05T04:42:46.186Z,11.94
2022-10-05T04:45:12.102Z,12.02
2022-10-05T04:47:38.029Z,12.09
2022-10-05T04:50:03.945Z,12.12
2022-10-05T04:52:29.878Z,11.92
2022-10-05T04:54:55.787Z,11.93
2022-10-05T04:57:21.702Z,11.97
2022-10-05T04:59:47.623Z,12.02
2022-10-05T05:02:13.550Z,12.08
2022-10-05T05:04:39.493Z,12.06
2022-10-05T05:07:05.418Z,11.93
2022-10-05T05:09:31.333Z,11.88
2022-10-05T05:11:57.307Z,12.03
2022-10-05T05:14:23.326Z,12.00
2022-10-05T05:16:49.473Z,12.09
2022-10-05T05:19:15.569Z,11.90
2022-10-05T05:21:41.505Z,11.65
2022-10-05T05:24:07.408Z,11.72
2022-10-05T05:26:36.814Z,11.74
2022-10-05T05:29:04.889Z,12.11
2022-10-05T05:31:30.927Z,12.15
2022-10-05T05:33:56.924Z,12.29
2022-10-05T05:36:23.590Z,12.27
2022-10-05T05:38:49.605Z,12.21
2022-10-05T05:41:15.608Z,12.19
2022-10-05T05:43:41.570Z,11.90
2022-10-05T05:46:07.493Z,12.13
2022-10-05T05:48:33.418Z,12.38
2022-10-05T05:51:00.367Z,12.46
2022-10-05T05:53:26.592Z,12.51
2022-10-05T05:55:52.491Z,12.63
2022-10-05T05:58:18.425Z,12.65
2022-10-05T06:00:44.340Z,12.73
2022-10-05T06:03:10.381Z,12.75
2022-10-05T06:05:36.400Z,12.81
2022-10-05T06:08:02.325Z,12.83
2022-10-05T06:10:28.279Z,13.01
2022-10-05T06:12:57.352Z,13.31
2022-10-05T06:15:25.583Z,12.80
2022-10-05T06:17:55.013Z,12.89
2022-10-05T06:20:20.977Z,13.25
2022-10-05T06:22:46.923Z,13.31
2022-10-05T06:25:13.157Z,13.39
2022-10-05T06:27:39.336Z,13.59
2022-10-05T06:30:05.561Z,13.73
2022-10-05T06:32:31.780Z,13.63
2022-10-05T06:34:57.978Z,13.87
2022-10-05T06:37:24.258Z,13.88
2022-10-05T06:39:50.486Z,13.93
2022-10-05T08:47:25.468Z,20.09
2022-10-05T08:49:51.379Z,20.26
2022-10-05T08:52:17.312Z,20.47
2022-10-05T08:54:43.201Z,20.73
2022-10-05T08:57:09.183Z,20.61
2022-10-05T08:59:35.086Z,20.03
2022-10-05T09:02:01.013Z,20.10
2022-10-05T09:04:26.965Z,20.45
2022-10-05T09:06:52.902Z,20.84
2022-10-05T09:09:18.817Z,21.03
2022-10-05T09:11:45.052Z,20.93
2022-10-05T09:16:55.457Z,20.48
2022-10-05T09:19:21.361Z,20.34
2022-10-05T09:21:47.441Z,20.33
2022-10-05T09:24:13.588Z,20.86
2022-10-05T09:26:39.485Z,20.97
2022-10-05T09:29:05.398Z,21.66
2022-10-05T09:31:31.381Z,22.06
2022-10-05T09:33:57.349Z,21.76
2022-10-05T09:36:23.270Z,21.52
2022-10-05T09:38:49.176Z,21.32
2022-10-05T09:41:15.115Z,21.78
2022-10-05T09:43:41.031Z,22.11
2022-10-05T09:46:07.033Z,22.23
2022-10-05T09:48:33.045Z,22.36
2022-10-05T09:50:58.975Z,22.18
2022-10-05T09:53:24.875Z,21.98
2022-10-05T09:55:50.789Z,22.05
2022-10-05T09:58:16.698Z,22.46
2022-10-05T10:00:47.061Z,22.33
2022-10-05T10:03:20.277Z,21.80
2022-10-05T10:05:46.260Z,21.45
2022-10-05T10:08:12.190Z,21.93
2022-10-05T10:10:38.093Z,22.56
2022-10-05T10:13:04.014Z,23.10
2022-10-05T10:15:29.965Z,23.34
2022-10-05T10:17:55.941Z,23.61
2022-10-05T10:20:21.872Z,22.54
2022-10-05T10:22:47.802Z,22.89
2022-10-05T10:25:13.724Z,23.59
2022-10-05T10:27:39.675Z,23.99
2022-10-05T10:30:05.604Z,24.34
2022-10-05T10:32:31.506Z,24.51
2022-10-05T10:34:57.443Z,23.91
2022-10-05T10:37:23.347Z,23.93
2022-10-05T10:39:50.685Z,24.32
2022-10-05T10:42:25.296Z,24.46
2022-10-05T10:44:52.298Z,24.91
2022-10-05T10:47:18.218Z,24.55
2022-10-05T10:49:44.144Z,23.92
2022-10-05T10:52:10.068Z,23.58
2022-10-05T10:54:35.975Z,24.36
2022-10-05T10:57:01.910Z,24.45
2022-10-05T10:59:30.774Z,24.16
2022-10-05T11:01:57.693Z,24.88
2022-10-05T11:04:23.647Z,24.41
2022-10-05T11:06:49.566Z,24.60
2022-10-05T11:09:15.543Z,24.52
2022-10-05T11:11:41.489Z,24.22
2022-10-05T11:14:07.403Z,24.11
2022-10-05T11:16:33.316Z,23.65
2022-10-05T11:18:59.316Z,23.49
2022-10-05T11:21:25.401Z,24.36
2022-10-05T11:23:51.408Z,24.65
2022-10-05T11:26:17.768Z,25.49
2022-10-05T11:28:44.046Z,25.65
2022-10-05T11:31:10.265Z,25.84
2022-10-05T11:33:36.529Z,25.61
2022-10-05T11:36:02.831Z,24.95
2022-10-05T11:38:29.133Z,25.49
2022-10-05T11:40:55.258Z,26.08
2022-10-05T13:46:06.227Z,25.15
2022-10-05T13:48:32.154Z,25.22
2022-10-05T13:50:58.107Z,25.06
2022-10-05T13:53:24.039Z,25.22
2022-10-05T13:55:49.992Z,25.21
2022-10-05T13:58:15.928Z,24.95
2022-10-05T14:00:41.828Z,25.50
2022-10-05T14:03:07.805Z,26.05
2022-10-05T14:05:33.751Z,26.12
2022-10-05T14:07:59.673Z,26.25
2022-10-05T14:10:25.602Z,25.32
2022-10-05T14:12:51.528Z,24.87
2022-10-05T14:15:17.426Z,24.99
2022-10-05T14:17:43.335Z,25.29
2022-10-05T14:20:09.391Z,25.62
2022-10-05T14:22:35.403Z,25.03
2022-10-05T14:25:01.361Z,25.01
2022-10-05T14:27:27.282Z,25.28
2022-10-05T14:29:53.261Z,25.10
2022-10-05T14:32:19.214Z,24.39
2022-10-05T14:34:45.232Z,23.95
2022-10-05T14:37:11.137Z,23.76
2022-10-05T14:39:37.034Z,23.62
2022-10-05T14:42:02.962Z,23.56
2022-10-05T14:44:28.905Z,23.57
2022-10-05T14:46:54.838Z,23.82
2022-10-05T14:49:20.745Z,23.84
2022-10-05T14:51:46.662Z,24.02
2022-10-05T14:54:12.599Z,23.93
2022-10-05T14:56:38.505Z,23.88
2022-10-05T14:59:04.401Z,24.00
2022-10-05T15:01:30.331Z,24.02
2022-10-05T15:03:56.279Z,23.82
2022-10-05T15:06:22.183Z,23.97
2022-10-05T15:08:48.094Z,24.18
2022-10-05T15:11:14.053Z,24.35
2022-10-05T15:13:39.955Z,24.40
2022-10-05T15:16:05.957Z,24.29
2022-10-05T15:18:32.413Z,24.21
2022-10-05T15:20:58.421Z,24.26
2022-10-05T15:23:24.334Z,24.08
2022-10-05T15:25:50.223Z,24.17
2022-10-05T15:28:16.231Z,24.15
2022-10-05T15:30:42.263Z,24.09
2022-10-05T15:33:08.208Z,24.04
2022-10-05T15:35:34.136Z,23.84
2022-10-05T15:38:00.038Z,23.84
2022-10-05T15:40:25.967Z,23.80
2022-10-05T15:42:51.876Z,23.85
2022-10-05T15:45:17.806Z,23.87
2022-10-05T15:47:43.716Z,23.81
2022-10-05T15:50:09.615Z,23.78
2022-10-05T15:52:35.560Z,23.70
2022-10-05T15:55:01.814Z,23.66
2022-10-05T15:57:28.250Z,23.62
2022-10-05T15:59:54.161Z,23.32
2022-10-05T16:02:20.219Z,23.15
2022-10-05T16:04:46.176Z,23.15
2022-10-05T16:07:12.115Z,23.07
2022-10-05T16:09:38.015Z,23.02
2022-10-05T16:12:03.935Z,22.93
2022-10-05T16:14:29.857Z,22.91
2022-10-05T16:16:57.886Z,22.80
2022-10-05T16:19:23.907Z,22.74
2022-10-05T16:24:15.691Z,22.71
2022-10-05T16:26:41.958Z,22.56
2022-10-05T16:29:08.165Z,22.47
2022-10-05T16:31:34.358Z,22.21
2022-10-05T16:34:00.581Z,22.18
2022-10-05T18:33:17.280Z,19.73
2022-10-05T18:35:43.215Z,19.62
2022-10-05T18:38:09.140Z,19.59
2022-10-05T18:40:35.093Z,19.53
2022-10-05T18:43:01.128Z,19.45
2022-10-05T18:45:27.062Z,19.50
2022-10-05T18:47:52.999Z,19.37
2022-10-05T18:50:18.912Z,19.34
2022-10-05T18:52:44.900Z,19.26
2022-10-05T18:55:10.843Z,19.35
2022-10-05T18:57:36.803Z,19.43
2022-10-05T19:00:02.717Z,19.40
2022-10-05T19:02:28.796Z,19.35
2022-10-05T19:04:54.786Z,19.21
2022-10-05T19:07:20.729Z,19.08
2022-10-05T19:09:46.638Z,19.06
2022-10-05T19:12:12.561Z,19.02
2022-10-05T19:14:38.504Z,19.11
2022-10-05T19:17:04.406Z,19.19
2022-10-05T19:19:33.469Z,19.18
2022-10-05T19:21:59.736Z,19.06
2022-10-05T19:24:25.637Z,18.94
2022-10-05T19:26:51.547Z,18.88
2022-10-05T19:29:17.472Z,18.86
2022-10-05T19:31:43.412Z,18.85
2022-10-05T19:34:09.411Z,18.85
2022-10-05T19:36:35.333Z,18.92
2022-10-05T19:39:01.272Z,18.95
2022-10-05T19:41:27.172Z,18.87
2022-10-05T19:43:53.097Z,18.88
2022-10-05T19:46:20.009Z,18.80
2022-10-05T19:48:46.146Z,18.66
2022-10-05T19:51:12.077Z,18.62
2022-10-05T19:53:37.983Z,18.51
2022-10-05T19:56:03.910Z,18.50
2022-10-05T19:58:30.295Z,18.37
2022-10-05T20:00:56.491Z,18.17
2022-10-05T20:03:22.423Z,18.28
2022-10-05T20:05:48.354Z,18.35
2022-10-05T20:08:14.260Z,18.40
2022-10-05T20:10:40.188Z,18.52
2022-10-05T20:13:06.123Z,18.47
2022-10-05T20:15:32.028Z,18.38
2022-10-05T20:17:57.971Z,18.21
2022-10-05T20:20:23.885Z,18.31
2022-10-05T20:22:49.830Z,18.29
2022-10-05T20:25:15.756Z,18.29
2022-10-05T20:27:41.679Z,18.18
2022-10-05T20:30:07.731Z,18.26
2022-10-05T20:32:33.688Z,18.27
2022-10-05T20:34:59.613Z,18.29
2022-10-05T20:37:25.534Z,18.16
2022-10-05T20:39:51.441Z,18.09
2022-10-05T20:42:17.333Z,18.15
2022-10-05T20:44:43.273Z,18.18
2022-10-05T20:47:09.233Z,18.14
2022-10-05T20:49:35.218Z,18.03
2022-10-05T20:52:01.143Z,18.07
2022-10-05T20:54:27.046Z,18.09
2022-10-05T20:56:53.004Z,18.06
2022-10-05T20:59:18.936Z,17.90
2022-10-05T21:01:44.894Z,17.91
2022-10-05T21:04:10.794Z,17.90
2022-10-05T21:06:36.707Z,17.86
2022-10-05T21:09:02.601Z,17.91
2022-10-05T21:11:28.861Z,17.78
2022-10-05T21:13:55.056Z,17.73
2022-10-05T21:16:21.319Z,17.70
2022-10-05T21:18:47.665Z,17.65
2022-10-05T21:21:13.886Z,17.38
2022-10-05T21:23:40.181Z,17.46
2022-10-05T21:26:06.292Z,17.62
2022-10-05T23:26:17.670Z,16.34
2022-10-05T23:28:43.626Z,16.25
2022-10-05T23:31:09.624Z,16.34
2022-10-05T23:33:35.558Z,16.28
2022-10-05T23:36:01.495Z,16.23
2022-10-05T23:38:27.632Z,16.27
2022-10-05T23:40:53.718Z,16.31
2022-10-05T23:43:19.645Z,16.34
2022-10-05T23:45:45.648Z,16.41
2022-10-05T23:48:11.599Z,15.99
2022-10-05T23:50:37.514Z,15.87
2022-10-05T23:53:03.438Z,15.73
2022-10-05T23:55:29.344Z,15.96
2022-10-05T23:57:55.233Z,15.79
